sensor_id;sensor_type;location;lat;lon;timestamp;P1;durP1;ratioP1;P2;durP2;ratioP2
21356;SDS011;10836;53.068;18.234;2023-11-21T00:00:03;28.57;;;17.90;;
21356;SDS011;10836;53.068;18.234;2023-11-21T00:02:58;32.10;;;20.13;;
21356;SDS011;10836;53.068;18.234;2023-11-21T00:05:25;30.40;;;19.63;;
21356;SDS011;10836;53.068;18.234;2023-11-21T00:07:52;34.70;;;20.53;;
21356;SDS011;10836;53.068;18.234;2023-11-21T00:10:19;32.73;;;19.97;;
21356;SDS011;10836;53.068;18.234;2023-11-21T00:12:46;31.00;;;20.17;;
21356;SDS011;10836;53.068;18.234;2023-11-21T00:15:15;37.47;;;20.57;;
21356;SDS011;10836;53.068;18.234;2023-11-21T00:17:41;33.40;;;19.33;;
21356;SDS011;10836;53.068;18.234;2023-11-21T00:20:09;33.20;;;18.03;;
21356;SDS011;10836;53.068;18.234;2023-11-21T00:22:39;28.93;;;18.17;;
21356;SDS011;10836;53.068;18.234;2023-11-21T00:25:07;31.13;;;18.63;;
21356;SDS011;10836;53.068;18.234;2023-11-21T00:27:36;28.17;;;17.67;;
21356;SDS011;10836;53.068;18.234;2023-11-21T00:30:03;28.13;;;17.23;;
21356;SDS011;10836;53.068;18.234;2023-11-21T00:32:33;28.10;;;18.10;;
21356;SDS011;10836;53.068;18.234;2023-11-21T00:35:00;29.67;;;18.30;;
21356;SDS011;10836;53.068;18.234;2023-11-21T00:37:27;29.80;;;18.07;;
21356;SDS011;10836;53.068;18.234;2023-11-21T00:39:55;34.37;;;19.20;;
21356;SDS011;10836;53.068;18.234;2023-11-21T00:42:22;32.83;;;19.60;;
21356;SDS011;10836;53.068;18.234;2023-11-21T00:44:50;28.80;;;18.17;;
21356;SDS011;10836;53.068;18.234;2023-11-21T00:47:17;28.37;;;18.47;;
21356;SDS011;10836;53.068;18.234;2023-11-21T00:49:44;32.03;;;20.10;;
21356;SDS011;10836;53.068;18.234;2023-11-21T00:52:11;30.97;;;19.70;;
21356;SDS011;10836;53.068;18.234;2023-11-21T00:54:38;30.57;;;18.60;;
21356;SDS011;10836;53.068;18.234;2023-11-21T00:57:06;31.57;;;18.13;;
21356;SDS011;10836;53.068;18.234;2023-11-21T00:59:35;30.47;;;18.97;;
21356;SDS011;10836;53.068;18.234;2023-11-21T01:02:02;30.93;;;19.47;;
21356;SDS011;10836;53.068;18.234;2023-11-21T01:04:32;34.20;;;19.57;;
21356;SDS011;10836;53.068;18.234;2023-11-21T01:06:59;38.63;;;21.17;;
21356;SDS011;10836;53.068;18.234;2023-11-21T01:09:26;37.07;;;21.93;;
21356;SDS011;10836;53.068;18.234;2023-11-21T01:11:54;32.93;;;19.43;;
21356;SDS011;10836;53.068;18.234;2023-11-21T01:14:21;31.03;;;19.60;;
21356;SDS011;10836;53.068;18.234;2023-11-21T01:16:48;28.70;;;18.00;;
21356;SDS011;10836;53.068;18.234;2023-11-21T01:19:16;28.73;;;17.53;;
21356;SDS011;10836;53.068;18.234;2023-11-21T01:21:43;23.87;;;15.80;;
21356;SDS011;10836;53.068;18.234;2023-11-21T01:24:10;27.50;;;16.40;;
21356;SDS011;10836;53.068;18.234;2023-11-21T01:26:37;28.90;;;17.47;;
21356;SDS011;10836;53.068;18.234;2023-11-21T01:29:04;27.33;;;17.13;;
21356;SDS011;10836;53.068;18.234;2023-11-21T01:31:31;27.97;;;16.93;;
21356;SDS011;10836;53.068;18.234;2023-11-21T01:33:58;26.07;;;16.20;;
21356;SDS011;10836;53.068;18.234;2023-11-21T01:36:29;30.20;;;17.37;;
21356;SDS011;10836;53.068;18.234;2023-11-21T01:38:59;26.43;;;17.03;;
21356;SDS011;10836;53.068;18.234;2023-11-21T01:41:27;25.57;;;16.63;;
21356;SDS011;10836;53.068;18.234;2023-11-21T01:43:55;24.83;;;15.87;;
21356;SDS011;10836;53.068;18.234;2023-11-21T01:46:23;27.60;;;16.70;;
21356;SDS011;10836;53.068;18.234;2023-11-21T01:48:51;26.43;;;16.93;;
21356;SDS011;10836;53.068;18.234;2023-11-21T01:51:19;24.27;;;15.83;;
21356;SDS011;10836;53.068;18.234;2023-11-21T01:53:47;27.33;;;15.90;;
21356;SDS011;10836;53.068;18.234;2023-11-21T01:56:15;26.63;;;16.87;;
21356;SDS011;10836;53.068;18.234;2023-11-21T01:58:43;29.20;;;17.00;;
21356;SDS011;10836;53.068;18.234;2023-11-21T02:01:10;29.80;;;18.43;;
21356;SDS011;10836;53.068;18.234;2023-11-21T02:03:38;28.97;;;18.17;;
21356;SDS011;10836;53.068;18.234;2023-11-21T02:06:05;30.80;;;17.70;;
21356;SDS011;10836;53.068;18.234;2023-11-21T02:08:33;28.60;;;17.37;;
21356;SDS011;10836;53.068;18.234;2023-11-21T02:11:00;29.13;;;17.27;;
21356;SDS011;10836;53.068;18.234;2023-11-21T02:13:27;25.73;;;15.87;;
21356;SDS011;10836;53.068;18.234;2023-11-21T02:15:54;23.57;;;15.33;;
21356;SDS011;10836;53.068;18.234;2023-11-21T02:18:21;23.13;;;14.83;;
21356;SDS011;10836;53.068;18.234;2023-11-21T02:20:48;22.33;;;14.27;;
21356;SDS011;10836;53.068;18.234;2023-11-21T02:23:16;26.27;;;15.60;;
21356;SDS011;10836;53.068;18.234;2023-11-21T02:25:42;24.53;;;15.43;;
21356;SDS011;10836;53.068;18.234;2023-11-21T02:28:10;24.00;;;15.17;;
21356;SDS011;10836;53.068;18.234;2023-11-21T02:30:39;25.90;;;16.73;;
21356;SDS011;10836;53.068;18.234;2023-11-21T02:33:06;25.37;;;16.17;;
21356;SDS011;10836;53.068;18.234;2023-11-21T02:35:34;29.00;;;18.13;;
21356;SDS011;10836;53.068;18.234;2023-11-21T02:38:02;32.37;;;18.47;;
21356;SDS011;10836;53.068;18.234;2023-11-21T02:40:29;29.70;;;18.50;;
21356;SDS011;10836;53.068;18.234;2023-11-21T02:42:57;32.63;;;19.53;;
21356;SDS011;10836;53.068;18.234;2023-11-21T02:45:26;35.87;;;22.03;;
21356;SDS011;10836;53.068;18.234;2023-11-21T02:47:53;39.90;;;23.53;;
21356;SDS011;10836;53.068;18.234;2023-11-21T02:50:21;42.57;;;23.90;;
21356;SDS011;10836;53.068;18.234;2023-11-21T02:52:50;36.73;;;20.83;;
21356;SDS011;10836;53.068;18.234;2023-11-21T02:55:18;40.27;;;22.97;;
21356;SDS011;10836;53.068;18.234;2023-11-21T02:57:46;38.90;;;23.30;;
21356;SDS011;10836;53.068;18.234;2023-11-21T03:00:13;34.30;;;20.67;;
21356;SDS011;10836;53.068;18.234;2023-11-21T03:02:42;36.03;;;20.90;;
21356;SDS011;10836;53.068;18.234;2023-11-21T03:05:10;31.83;;;20.00;;
21356;SDS011;10836;53.068;18.234;2023-11-21T03:07:37;33.47;;;19.80;;
21356;SDS011;10836;53.068;18.234;2023-11-21T03:10:06;34.20;;;20.00;;
21356;SDS011;10836;53.068;18.234;2023-11-21T03:12:37;37.43;;;20.60;;
21356;SDS011;10836;53.068;18.234;2023-11-21T03:15:05;32.17;;;19.90;;
21356;SDS011;10836;53.068;18.234;2023-11-21T03:17:33;33.50;;;20.23;;
21356;SDS011;10836;53.068;18.234;2023-11-21T03:20:04;31.27;;;18.93;;
21356;SDS011;10836;53.068;18.234;2023-11-21T03:22:34;31.73;;;18.23;;
21356;SDS011;10836;53.068;18.234;2023-11-21T03:25:01;31.43;;;18.53;;
21356;SDS011;10836;53.068;18.234;2023-11-21T03:27:29;33.30;;;19.43;;
21356;SDS011;10836;53.068;18.234;2023-11-21T03:29:56;31.53;;;19.10;;
21356;SDS011;10836;53.068;18.234;2023-11-21T03:32:23;31.83;;;20.43;;
21356;SDS011;10836;53.068;18.234;2023-11-21T03:34:54;31.03;;;19.03;;
21356;SDS011;10836;53.068;18.234;2023-11-21T03:37:23;33.23;;;21.33;;
21356;SDS011;10836;53.068;18.234;2023-11-21T03:39:51;35.07;;;20.27;;
21356;SDS011;10836;53.068;18.234;2023-11-21T03:42:18;33.87;;;21.57;;
21356;SDS011;10836;53.068;18.234;2023-11-21T03:44:45;34.33;;;21.70;;
21356;SDS011;10836;53.068;18.234;2023-11-21T03:47:13;34.63;;;20.47;;
21356;SDS011;10836;53.068;18.234;2023-11-21T03:49:40;37.10;;;21.57;;
21356;SDS011;10836;53.068;18.234;2023-11-21T03:52:07;35.90;;;20.87;;
21356;SDS011;10836;53.068;18.234;2023-11-21T03:54:35;38.67;;;22.23;;
21356;SDS011;10836;53.068;18.234;2023-11-21T03:57:03;34.97;;;19.87;;
21356;SDS011;10836;53.068;18.234;2023-11-21T03:59:30;34.57;;;20.53;;
21356;SDS011;10836;53.068;18.234;2023-11-21T04:01:58;39.70;;;22.33;;
21356;SDS011;10836;53.068;18.234;2023-11-21T04:04:24;48.23;;;23.27;;
21356;SDS011;10836;53.068;18.234;2023-11-21T04:06:52;49.53;;;26.90;;
21356;SDS011;10836;53.068;18.234;2023-11-21T04:09:19;43.17;;;24.53;;
21356;SDS011;10836;53.068;18.234;2023-11-21T04:11:46;41.53;;;24.77;;
21356;SDS011;10836;53.068;18.234;2023-11-21T04:14:13;48.90;;;25.73;;
21356;SDS011;10836;53.068;18.234;2023-11-21T04:16:40;43.33;;;24.43;;
21356;SDS011;10836;53.068;18.234;2023-11-21T04:19:08;42.67;;;24.23;;
21356;SDS011;10836;53.068;18.234;2023-11-21T04:21:41;41.47;;;21.63;;
21356;SDS011;10836;53.068;18.234;2023-11-21T04:24:09;42.87;;;22.47;;
21356;SDS011;10836;53.068;18.234;2023-11-21T04:26:36;40.00;;;21.97;;
21356;SDS011;10836;53.068;18.234;2023-11-21T04:29:03;40.03;;;22.43;;
21356;SDS011;10836;53.068;18.234;2023-11-21T04:31:31;39.77;;;21.43;;
21356;SDS011;10836;53.068;18.234;2023-11-21T04:33:58;38.97;;;21.17;;
21356;SDS011;10836;53.068;18.234;2023-11-21T04:36:26;39.43;;;21.07;;
21356;SDS011;10836;53.068;18.234;2023-11-21T04:38:53;37.40;;;21.60;;
21356;SDS011;10836;53.068;18.234;2023-11-21T04:41:20;39.90;;;20.93;;
21356;SDS011;10836;53.068;18.234;2023-11-21T04:43:47;41.37;;;20.87;;
21356;SDS011;10836;53.068;18.234;2023-11-21T04:46:14;35.53;;;20.37;;
21356;SDS011;10836;53.068;18.234;2023-11-21T04:48:41;35.67;;;19.03;;
21356;SDS011;10836;53.068;18.234;2023-11-21T04:51:08;34.93;;;18.97;;
21356;SDS011;10836;53.068;18.234;2023-11-21T04:53:35;36.20;;;18.77;;
21356;SDS011;10836;53.068;18.234;2023-11-21T04:56:02;36.03;;;18.60;;
21356;SDS011;10836;53.068;18.234;2023-11-21T04:58:30;35.83;;;20.30;;
21356;SDS011;10836;53.068;18.234;2023-11-21T05:00:57;39.20;;;19.47;;
21356;SDS011;10836;53.068;18.234;2023-11-21T05:03:24;39.93;;;20.27;;
21356;SDS011;10836;53.068;18.234;2023-11-21T05:05:52;36.47;;;20.17;;
21356;SDS011;10836;53.068;18.234;2023-11-21T05:08:19;34.37;;;18.87;;
21356;SDS011;10836;53.068;18.234;2023-11-21T05:10:47;34.83;;;18.43;;
21356;SDS011;10836;53.068;18.234;2023-11-21T05:13:15;38.43;;;20.43;;
21356;SDS011;10836;53.068;18.234;2023-11-21T05:15:44;36.67;;;19.63;;
21356;SDS011;10836;53.068;18.234;2023-11-21T05:18:11;33.37;;;19.23;;
21356;SDS011;10836;53.068;18.234;2023-11-21T05:20:41;33.27;;;18.10;;
21356;SDS011;10836;53.068;18.234;2023-11-21T05:23:08;32.00;;;18.23;;
21356;SDS011;10836;53.068;18.234;2023-11-21T05:25:35;31.20;;;18.93;;
21356;SDS011;10836;53.068;18.234;2023-11-21T05:28:06;35.80;;;20.27;;
21356;SDS011;10836;53.068;18.234;2023-11-21T05:30:34;33.03;;;19.57;;
21356;SDS011;10836;53.068;18.234;2023-11-21T05:33:00;38.43;;;20.60;;
21356;SDS011;10836;53.068;18.234;2023-11-21T05:35:28;34.03;;;19.60;;
21356;SDS011;10836;53.068;18.234;2023-11-21T05:37:54;34.77;;;19.03;;
21356;SDS011;10836;53.068;18.234;2023-11-21T05:40:22;38.70;;;19.20;;
21356;SDS011;10836;53.068;18.234;2023-11-21T05:42:49;36.57;;;20.07;;
21356;SDS011;10836;53.068;18.234;2023-11-21T05:45:18;34.77;;;20.33;;
21356;SDS011;10836;53.068;18.234;2023-11-21T05:47:45;35.90;;;21.23;;
21356;SDS011;10836;53.068;18.234;2023-11-21T05:50:15;41.43;;;21.73;;
21356;SDS011;10836;53.068;18.234;2023-11-21T05:52:43;38.93;;;20.47;;
21356;SDS011;10836;53.068;18.234;2023-11-21T05:55:12;33.73;;;19.73;;
21356;SDS011;10836;53.068;18.234;2023-11-21T05:57:40;35.83;;;17.87;;
21356;SDS011;10836;53.068;18.234;2023-11-21T06:00:10;33.70;;;18.07;;
21356;SDS011;10836;53.068;18.234;2023-11-21T06:02:58;31.27;;;18.03;;
21356;SDS011;10836;53.068;18.234;2023-11-21T06:05:26;36.10;;;18.20;;
21356;SDS011;10836;53.068;18.234;2023-11-21T06:07:54;31.70;;;16.60;;
21356;SDS011;10836;53.068;18.234;2023-11-21T06:10:26;31.20;;;16.67;;
21356;SDS011;10836;53.068;18.234;2023-11-21T06:12:55;35.72;;;20.90;;
21356;SDS011;10836;53.068;18.234;2023-11-21T06:15:22;37.77;;;20.43;;
21356;SDS011;10836;53.068;18.234;2023-11-21T06:17:51;34.33;;;17.73;;
21356;SDS011;10836;53.068;18.234;2023-11-21T06:20:25;35.37;;;18.23;;
21356;SDS011;10836;53.068;18.234;2023-11-21T06:22:53;34.50;;;17.77;;
21356;SDS011;10836;53.068;18.234;2023-11-21T06:25:20;32.27;;;17.80;;
21356;SDS011;10836;53.068;18.234;2023-11-21T06:27:48;30.43;;;17.90;;
21356;SDS011;10836;53.068;18.234;2023-11-21T06:30:15;29.57;;;16.97;;
21356;SDS011;10836;53.068;18.234;2023-11-21T06:32:43;32.33;;;17.10;;
21356;SDS011;10836;53.068;18.234;2023-11-21T06:35:14;29.37;;;16.20;;
21356;SDS011;10836;53.068;18.234;2023-11-21T06:37:44;31.70;;;17.03;;
21356;SDS011;10836;53.068;18.234;2023-11-21T06:40:17;30.00;;;17.27;;
21356;SDS011;10836;53.068;18.234;2023-11-21T06:42:48;35.03;;;16.33;;
21356;SDS011;10836;53.068;18.234;2023-11-21T06:45:17;34.90;;;17.67;;
21356;SDS011;10836;53.068;18.234;2023-11-21T06:47:47;33.70;;;17.63;;
21356;SDS011;10836;53.068;18.234;2023-11-21T06:50:14;35.30;;;18.67;;
21356;SDS011;10836;53.068;18.234;2023-11-21T06:52:42;33.77;;;18.00;;
21356;SDS011;10836;53.068;18.234;2023-11-21T06:55:10;32.40;;;18.23;;
21356;SDS011;10836;53.068;18.234;2023-11-21T06:57:37;28.77;;;17.03;;
21356;SDS011;10836;53.068;18.234;2023-11-21T07:00:05;32.80;;;16.17;;
21356;SDS011;10836;53.068;18.234;2023-11-21T07:02:35;29.63;;;16.53;;
21356;SDS011;10836;53.068;18.234;2023-11-21T07:05:03;29.37;;;15.87;;
21356;SDS011;10836;53.068;18.234;2023-11-21T07:07:30;25.93;;;15.07;;
21356;SDS011;10836;53.068;18.234;2023-11-21T07:09:58;27.97;;;16.17;;
21356;SDS011;10836;53.068;18.234;2023-11-21T07:12:30;31.30;;;16.03;;
21356;SDS011;10836;53.068;18.234;2023-11-21T07:14:58;31.07;;;15.23;;
21356;SDS011;10836;53.068;18.234;2023-11-21T07:17:27;28.87;;;15.90;;
21356;SDS011;10836;53.068;18.234;2023-11-21T07:19:54;28.53;;;16.43;;
21356;SDS011;10836;53.068;18.234;2023-11-21T07:22:22;29.77;;;16.63;;
21356;SDS011;10836;53.068;18.234;2023-11-21T07:24:49;27.97;;;16.50;;
21356;SDS011;10836;53.068;18.234;2023-11-21T07:27:18;28.10;;;15.60;;
21356;SDS011;10836;53.068;18.234;2023-11-21T07:29:46;27.63;;;15.60;;
21356;SDS011;10836;53.068;18.234;2023-11-21T07:32:13;31.67;;;16.50;;
21356;SDS011;10836;53.068;18.234;2023-11-21T07:34:41;27.43;;;15.50;;
21356;SDS011;10836;53.068;18.234;2023-11-21T07:37:08;25.27;;;14.57;;
21356;SDS011;10836;53.068;18.234;2023-11-21T07:39:38;27.70;;;14.97;;
21356;SDS011;10836;53.068;18.234;2023-11-21T07:42:08;28.23;;;16.17;;
21356;SDS011;10836;53.068;18.234;2023-11-21T07:44:36;30.27;;;15.13;;
21356;SDS011;10836;53.068;18.234;2023-11-21T07:47:03;30.07;;;15.87;;
21356;SDS011;10836;53.068;18.234;2023-11-21T07:49:31;27.60;;;13.80;;
21356;SDS011;10836;53.068;18.234;2023-11-21T07:51:58;30.63;;;15.87;;
21356;SDS011;10836;53.068;18.234;2023-11-21T07:54:25;30.27;;;15.73;;
21356;SDS011;10836;53.068;18.234;2023-11-21T07:56:52;29.83;;;14.90;;
21356;SDS011;10836;53.068;18.234;2023-11-21T07:59:19;28.17;;;14.83;;
21356;SDS011;10836;53.068;18.234;2023-11-21T08:01:46;26.80;;;14.53;;
21356;SDS011;10836;53.068;18.234;2023-11-21T08:04:13;25.50;;;14.20;;
21356;SDS011;10836;53.068;18.234;2023-11-21T08:06:40;22.20;;;13.87;;
21356;SDS011;10836;53.068;18.234;2023-11-21T08:09:08;23.47;;;12.47;;
21356;SDS011;10836;53.068;18.234;2023-11-21T08:11:35;24.27;;;12.73;;
21356;SDS011;10836;53.068;18.234;2023-11-21T08:14:02;20.53;;;13.20;;
21356;SDS011;10836;53.068;18.234;2023-11-21T08:16:29;24.63;;;13.57;;
21356;SDS011;10836;53.068;18.234;2023-11-21T08:18:56;23.57;;;14.77;;
21356;SDS011;10836;53.068;18.234;2023-11-21T08:21:23;25.90;;;13.90;;
21356;SDS011;10836;53.068;18.234;2023-11-21T08:23:51;24.33;;;12.40;;
21356;SDS011;10836;53.068;18.234;2023-11-21T08:26:21;22.80;;;13.20;;
21356;SDS011;10836;53.068;18.234;2023-11-21T08:28:49;21.80;;;13.53;;
21356;SDS011;10836;53.068;18.234;2023-11-21T08:31:23;21.80;;;13.03;;
21356;SDS011;10836;53.068;18.234;2023-11-21T08:33:52;24.50;;;13.70;;
21356;SDS011;10836;53.068;18.234;2023-11-21T08:36:22;23.87;;;13.17;;
21356;SDS011;10836;53.068;18.234;2023-11-21T08:38:52;22.43;;;13.30;;
21356;SDS011;10836;53.068;18.234;2023-11-21T08:41:19;22.17;;;13.03;;
21356;SDS011;10836;53.068;18.234;2023-11-21T08:43:49;24.90;;;13.67;;
21356;SDS011;10836;53.068;18.234;2023-11-21T08:46:17;27.50;;;13.80;;
21356;SDS011;10836;53.068;18.234;2023-11-21T08:48:45;26.37;;;14.00;;
21356;SDS011;10836;53.068;18.234;2023-11-21T08:51:12;26.37;;;14.13;;
21356;SDS011;10836;53.068;18.234;2023-11-21T08:53:40;24.47;;;13.17;;
21356;SDS011;10836;53.068;18.234;2023-11-21T08:56:07;26.67;;;13.63;;
21356;SDS011;10836;53.068;18.234;2023-11-21T08:58:39;23.80;;;12.63;;
21356;SDS011;10836;53.068;18.234;2023-11-21T09:01:06;23.43;;;12.60;;
21356;SDS011;10836;53.068;18.234;2023-11-21T09:03:34;22.37;;;12.43;;
21356;SDS011;10836;53.068;18.234;2023-11-21T09:06:01;26.80;;;14.30;;
21356;SDS011;10836;53.068;18.234;2023-11-21T09:08:30;28.50;;;13.33;;
21356;SDS011;10836;53.068;18.234;2023-11-21T09:10:57;25.93;;;14.40;;
21356;SDS011;10836;53.068;18.234;2023-11-21T09:13:24;28.37;;;14.63;;
21356;SDS011;10836;53.068;18.234;2023-11-21T09:15:51;25.33;;;13.20;;
21356;SDS011;10836;53.068;18.234;2023-11-21T09:18:19;25.53;;;12.90;;
21356;SDS011;10836;53.068;18.234;2023-11-21T09:20:46;21.30;;;10.97;;
21356;SDS011;10836;53.068;18.234;2023-11-21T09:23:13;21.03;;;11.63;;
21356;SDS011;10836;53.068;18.234;2023-11-21T09:25:39;22.50;;;10.43;;
21356;SDS011;10836;53.068;18.234;2023-11-21T09:28:07;20.83;;;11.40;;
21356;SDS011;10836;53.068;18.234;2023-11-21T09:30:35;21.07;;;12.27;;
21356;SDS011;10836;53.068;18.234;2023-11-21T09:33:03;22.90;;;11.93;;
21356;SDS011;10836;53.068;18.234;2023-11-21T09:35:32;20.23;;;11.50;;
21356;SDS011;10836;53.068;18.234;2023-11-21T09:37:59;20.83;;;11.00;;
21356;SDS011;10836;53.068;18.234;2023-11-21T09:40:28;22.57;;;12.13;;
21356;SDS011;10836;53.068;18.234;2023-11-21T09:42:58;20.60;;;11.73;;
21356;SDS011;10836;53.068;18.234;2023-11-21T09:45:27;23.37;;;11.97;;
21356;SDS011;10836;53.068;18.234;2023-11-21T09:47:56;23.00;;;11.33;;
21356;SDS011;10836;53.068;18.234;2023-11-21T09:50:24;23.57;;;12.37;;
21356;SDS011;10836;53.068;18.234;2023-11-21T09:55:44;21.87;;;11.07;;
21356;SDS011;10836;53.068;18.234;2023-11-21T09:58:14;25.23;;;12.57;;
21356;SDS011;10836;53.068;18.234;2023-11-21T10:00:48;21.23;;;11.60;;
21356;SDS011;10836;53.068;18.234;2023-11-21T10:03:15;24.67;;;13.33;;
21356;SDS011;10836;53.068;18.234;2023-11-21T10:05:43;22.20;;;11.73;;
21356;SDS011;10836;53.068;18.234;2023-11-21T10:08:13;21.17;;;12.20;;
21356;SDS011;10836;53.068;18.234;2023-11-21T10:10:44;21.20;;;11.90;;
21356;SDS011;10836;53.068;18.234;2023-11-21T10:13:13;18.97;;;10.43;;
21356;SDS011;10836;53.068;18.234;2023-11-21T10:15:43;22.23;;;10.57;;
21356;SDS011;10836;53.068;18.234;2023-11-21T10:18:15;17.27;;;10.37;;
21356;SDS011;10836;53.068;18.234;2023-11-21T10:20:43;19.50;;;11.43;;
21356;SDS011;10836;53.068;18.234;2023-11-21T10:23:13;21.23;;;11.97;;
21356;SDS011;10836;53.068;18.234;2023-11-21T10:25:42;21.30;;;12.20;;
21356;SDS011;10836;53.068;18.234;2023-11-21T10:28:09;23.77;;;12.40;;
21356;SDS011;10836;53.068;18.234;2023-11-21T10:30:37;23.70;;;12.73;;
21356;SDS011;10836;53.068;18.234;2023-11-21T10:33:05;21.03;;;12.07;;
21356;SDS011;10836;53.068;18.234;2023-11-21T10:38:14;19.93;;;10.73;;
21356;SDS011;10836;53.068;18.234;2023-11-21T10:40:41;20.00;;;10.77;;
21356;SDS011;10836;53.068;18.234;2023-11-21T10:43:09;25.37;;;11.87;;
21356;SDS011;10836;53.068;18.234;2023-11-21T10:45:37;20.50;;;11.60;;
21356;SDS011;10836;53.068;18.234;2023-11-21T10:48:10;22.13;;;11.43;;
21356;SDS011;10836;53.068;18.234;2023-11-21T10:50:46;20.83;;;11.70;;
21356;SDS011;10836;53.068;18.234;2023-11-21T10:53:14;22.23;;;12.33;;
21356;SDS011;10836;53.068;18.234;2023-11-21T10:55:42;25.27;;;14.10;;
21356;SDS011;10836;53.068;18.234;2023-11-21T10:58:13;24.93;;;13.83;;
21356;SDS011;10836;53.068;18.234;2023-11-21T11:00:40;21.90;;;12.80;;
21356;SDS011;10836;53.068;18.234;2023-11-21T11:03:08;23.40;;;12.13;;
21356;SDS011;10836;53.068;18.234;2023-11-21T11:05:43;23.70;;;13.60;;
21356;SDS011;10836;53.068;18.234;2023-11-21T11:08:21;23.87;;;12.77;;
21356;SDS011;10836;53.068;18.234;2023-11-21T11:10:54;20.23;;;10.90;;
21356;SDS011;10836;53.068;18.234;2023-11-21T11:13:22;25.63;;;14.47;;
21356;SDS011;10836;53.068;18.234;2023-11-21T11:15:49;25.40;;;13.70;;
21356;SDS011;10836;53.068;18.234;2023-11-21T11:18:18;23.57;;;13.40;;
21356;SDS011;10836;53.068;18.234;2023-11-21T11:20:47;24.47;;;11.30;;
21356;SDS011;10836;53.068;18.234;2023-11-21T11:28:52;23.20;;;11.50;;
21356;SDS011;10836;53.068;18.234;2023-11-21T11:31:31;22.27;;;11.87;;
21356;SDS011;10836;53.068;18.234;2023-11-21T11:34:26;21.80;;;11.63;;
21356;SDS011;10836;53.068;18.234;2023-11-21T11:37:21;21.10;;;11.17;;
21356;SDS011;10836;53.068;18.234;2023-11-21T11:39:50;19.03;;;10.93;;
21356;SDS011;10836;53.068;18.234;2023-11-21T11:42:17;18.80;;;11.30;;
21356;SDS011;10836;53.068;18.234;2023-11-21T11:47:29;21.20;;;10.87;;
21356;SDS011;10836;53.068;18.234;2023-11-21T11:52:49;22.27;;;11.33;;
21356;SDS011;10836;53.068;18.234;2023-11-21T11:55:18;22.57;;;11.57;;
21356;SDS011;10836;53.068;18.234;2023-11-21T11:57:53;21.17;;;11.33;;
21356;SDS011;10836;53.068;18.234;2023-11-21T12:02:57;15.00;;;9.57;;
21356;SDS011;10836;53.068;18.234;2023-11-21T12:05:27;15.23;;;8.57;;
21356;SDS011;10836;53.068;18.234;2023-11-21T12:07:55;16.67;;;9.53;;
21356;SDS011;10836;53.068;18.234;2023-11-21T12:10:25;17.53;;;10.30;;
21356;SDS011;10836;53.068;18.234;2023-11-21T12:12:57;17.57;;;8.93;;
21356;SDS011;10836;53.068;18.234;2023-11-21T12:15:25;16.33;;;9.73;;
21356;SDS011;10836;53.068;18.234;2023-11-21T12:17:53;15.83;;;9.40;;
21356;SDS011;10836;53.068;18.234;2023-11-21T12:20:21;15.87;;;9.20;;
21356;SDS011;10836;53.068;18.234;2023-11-21T12:25:18;18.47;;;9.37;;
21356;SDS011;10836;53.068;18.234;2023-11-21T12:27:49;18.57;;;9.37;;
21356;SDS011;10836;53.068;18.234;2023-11-21T12:30:18;16.60;;;9.27;;
21356;SDS011;10836;53.068;18.234;2023-11-21T12:32:52;14.13;;;8.23;;
21356;SDS011;10836;53.068;18.234;2023-11-21T12:35:21;16.17;;;8.73;;
21356;SDS011;10836;53.068;18.234;2023-11-21T12:37:49;16.50;;;8.60;;
21356;SDS011;10836;53.068;18.234;2023-11-21T12:40:18;16.07;;;9.50;;
21356;SDS011;10836;53.068;18.234;2023-11-21T12:42:46;19.93;;;9.50;;
21356;SDS011;10836;53.068;18.234;2023-11-21T12:47:54;14.80;;;8.60;;
21356;SDS011;10836;53.068;18.234;2023-11-21T12:50:24;15.70;;;8.43;;
21356;SDS011;10836;53.068;18.234;2023-11-21T12:52:59;17.30;;;9.10;;
21356;SDS011;10836;53.068;18.234;2023-11-21T12:55:32;15.17;;;8.43;;
21356;SDS011;10836;53.068;18.234;2023-11-21T12:58:05;16.20;;;8.63;;
21356;SDS011;10836;53.068;18.234;2023-11-21T13:00:38;17.80;;;8.90;;
21356;SDS011;10836;53.068;18.234;2023-11-21T13:03:16;17.23;;;8.87;;
21356;SDS011;10836;53.068;18.234;2023-11-21T13:05:47;16.03;;;8.90;;
21356;SDS011;10836;53.068;18.234;2023-11-21T13:08:19;20.47;;;8.80;;
21356;SDS011;10836;53.068;18.234;2023-11-21T13:10:53;15.87;;;8.10;;
21356;SDS011;10836;53.068;18.234;2023-11-21T13:13:24;16.63;;;8.57;;
21356;SDS011;10836;53.068;18.234;2023-11-21T13:15:55;17.03;;;9.00;;
21356;SDS011;10836;53.068;18.234;2023-11-21T13:18:32;16.63;;;9.10;;
21356;SDS011;10836;53.068;18.234;2023-11-21T13:21:03;19.07;;;8.57;;
21356;SDS011;10836;53.068;18.234;2023-11-21T13:23:39;14.70;;;8.70;;
21356;SDS011;10836;53.068;18.234;2023-11-21T13:26:08;16.83;;;8.23;;
21356;SDS011;10836;53.068;18.234;2023-11-21T13:28:36;15.47;;;7.63;;
21356;SDS011;10836;53.068;18.234;2023-11-21T13:31:05;14.53;;;7.40;;
21356;SDS011;10836;53.068;18.234;2023-11-21T13:33:38;14.30;;;7.37;;
21356;SDS011;10836;53.068;18.234;2023-11-21T13:36:06;19.07;;;8.00;;
21356;SDS011;10836;53.068;18.234;2023-11-21T13:38:37;14.93;;;7.30;;
21356;SDS011;10836;53.068;18.234;2023-11-21T13:41:10;17.60;;;7.90;;
21356;SDS011;10836;53.068;18.234;2023-11-21T13:43:39;14.30;;;7.50;;
21356;SDS011;10836;53.068;18.234;2023-11-21T13:46:06;14.27;;;8.13;;
21356;SDS011;10836;53.068;18.234;2023-11-21T13:48:41;15.67;;;7.70;;
21356;SDS011;10836;53.068;18.234;2023-11-21T13:51:22;15.87;;;7.47;;
21356;SDS011;10836;53.068;18.234;2023-11-21T13:53:57;14.10;;;7.30;;
21356;SDS011;10836;53.068;18.234;2023-11-21T13:56:26;12.87;;;7.03;;
21356;SDS011;10836;53.068;18.234;2023-11-21T13:58:55;10.87;;;6.70;;
21356;SDS011;10836;53.068;18.234;2023-11-21T14:01:23;19.23;;;7.53;;
21356;SDS011;10836;53.068;18.234;2023-11-21T14:04:09;14.03;;;6.80;;
21356;SDS011;10836;53.068;18.234;2023-11-21T14:06:49;12.60;;;6.77;;
21356;SDS011;10836;53.068;18.234;2023-11-21T14:09:18;14.63;;;6.63;;
21356;SDS011;10836;53.068;18.234;2023-11-21T14:11:53;13.93;;;6.90;;
21356;SDS011;10836;53.068;18.234;2023-11-21T14:14:23;17.17;;;7.87;;
21356;SDS011;10836;53.068;18.234;2023-11-21T14:16:52;17.80;;;8.13;;
21356;SDS011;10836;53.068;18.234;2023-11-21T14:19:28;15.80;;;7.97;;
21356;SDS011;10836;53.068;18.234;2023-11-21T14:21:59;18.67;;;7.77;;
21356;SDS011;10836;53.068;18.234;2023-11-21T14:24:26;13.63;;;7.40;;
21356;SDS011;10836;53.068;18.234;2023-11-21T14:26:56;17.97;;;8.23;;
21356;SDS011;10836;53.068;18.234;2023-11-21T14:29:22;14.23;;;8.00;;
21356;SDS011;10836;53.068;18.234;2023-11-21T14:31:51;15.23;;;7.63;;
21356;SDS011;10836;53.068;18.234;2023-11-21T14:34:20;17.47;;;7.47;;
21356;SDS011;10836;53.068;18.234;2023-11-21T14:36:49;16.90;;;8.00;;
21356;SDS011;10836;53.068;18.234;2023-11-21T14:39:17;17.00;;;8.10;;
21356;SDS011;10836;53.068;18.234;2023-11-21T14:41:53;16.23;;;8.47;;
21356;SDS011;10836;53.068;18.234;2023-11-21T14:44:22;14.03;;;7.97;;